Time;durP1;ratioP1;P1;durP2;ratioP2;P2;SDS_P1;SDS_P2;PMS_P1;PMS_P2;Temp;Humidity;BMP_temperature;BMP_pressure;BME280_temperature;BME280_humidity;BME280_pressure;Samples;Min_cycle;Max_cycle;Signal;HPM_P1;HPM_P2
2023/05/24 00:00:47;;;;;;;11.50;7.40;;;;;;;17.92;62.84;100641.63;2106338;27;20031;-71
2023/05/24 00:01:49;;;;;;;17.10;7.72;;;;;;;17.86;62.88;100632.03;2115105;27;20024;-73
2023/05/24 00:02:51;;;;;;;15.50;8.38;;;;;;;17.86;62.90;100633.97;2106492;28;20083;-75
2023/05/24 00:03:57;;;;;;;14.25;8.07;;;;;;;17.80;62.99;100627.91;2097986;28;20040;-74
2023/05/24 00:05:00;;;;;;;15.85;8.07;;;;;;;17.76;63.28;100632.38;2107573;27;20134;-76
2023/05/24 00:06:05;;;;;;;12.98;7.30;;;;;;;17.76;63.36;100630.44;2106711;28;20163;-76
2023/05/24 00:07:08;;;;;;;13.45;7.45;;;;;;;17.78;63.22;100632.84;2100117;27;20136;-71
2023/05/24 00:08:10;;;;;;;12.10;7.35;;;;;;;17.71;63.39;100622.44;2115197;27;20036;-75
2023/05/24 00:09:12;;;;;;;11.65;7.25;;;;;;;17.64;63.45;100627.59;2108584;27;20028;-73
2023/05/24 00:10:13;;;;;;;10.20;6.80;;;;;;;17.60;63.42;100627.44;2115222;27;20811;-73
2023/05/24 00:11:19;;;;;;;13.65;7.30;;;;;;;17.59;63.53;100622.31;2106434;28;20044;-73
2023/05/24 00:12:21;;;;;;;22.40;7.18;;;;;;;17.62;63.49;100635.28;2103574;27;20040;-70
2023/05/24 00:13:25;;;;;;;14.88;6.90;;;;;;;17.62;63.46;100618.97;2123350;27;20153;-70
2023/05/24 00:14:27;;;;;;;12.20;6.90;;;;;;;17.65;63.80;100631.91;2123748;27;20051;-69
2023/05/24 00:15:29;;;;;;;13.05;7.10;;;;;;;17.65;64.03;100631.91;2114582;28;20043;-70
2023/05/24 00:16:31;;;;;;;13.90;7.07;;;;;;;17.67;63.74;100620.72;2090033;28;20808;-71
2023/05/24 00:17:39;;;;;;;10.13;6.80;;;;;;;17.67;63.65;100631.59;2097858;28;20091;-71
2023/05/24 00:18:45;;;;;;;16.30;6.60;;;;;;;17.70;63.61;100631.75;2101082;27;20021;-71
2023/05/24 00:19:51;;;;;;;13.18;6.47;;;;;;;17.72;63.79;100629.50;2115698;27;20056;-71
2023/05/24 00:20:55;;;;;;;12.10;7.05;;;;;;;17.76;63.50;100629.66;2097930;28;20045;-71
2023/05/24 00:22:00;;;;;;;9.75;6.80;;;;;;;17.79;63.66;100638.00;2091496;28;20029;-70
2023/05/24 00:23:01;;;;;;;12.38;6.35;;;;;;;17.80;63.47;100631.41;2107197;27;20031;-71
2023/05/24 00:24:04;;;;;;;10.75;6.70;;;;;;;17.80;63.52;100639.56;2114942;27;20066;-71
2023/05/24 00:25:08;;;;;;;13.60;7.03;;;;;;;17.77;63.76;100632.06;2113105;28;20945;-71
2023/05/24 00:26:10;;;;;;;13.07;6.43;;;;;;;17.75;63.71;100626.13;2098445;28;20071;-71
2023/05/24 00:27:15;;;;;;;9.13;5.88;;;;;;;17.74;63.85;100624.53;2106926;28;20017;-71
2023/05/24 00:28:16;;;;;;;10.73;7.03;;;;;;;17.79;63.71;100632.53;2098108;28;20033;-70
2023/05/24 00:29:20;;;;;;;12.43;6.40;;;;;;;17.83;63.54;100633.47;2081534;28;21258;-70
2023/05/24 00:30:21;;;;;;;13.02;6.40;;;;;;;17.85;63.75;100632.38;2073779;28;20034;-71
2023/05/24 00:31:24;;;;;;;10.93;6.95;;;;;;;17.83;63.81;100641.66;2090127;28;21173;-71
2023/05/24 00:32:25;;;;;;;11.73;6.95;;;;;;;17.80;63.77;100636.84;2098192;28;21342;-70
2023/05/24 00:33:28;;;;;;;9.88;6.05;;;;;;;17.77;64.02;100637.50;2098222;28;20148;-70
2023/05/24 00:34:29;;;;;;;11.18;6.35;;;;;;;17.76;64.11;100635.88;2098469;28;20913;-71
2023/05/24 00:35:31;;;;;;;11.60;6.28;;;;;;;17.74;64.18;100642.75;2106499;28;20028;-71
2023/05/24 00:36:33;;;;;;;9.82;5.97;;;;;;;17.75;63.89;100647.09;2114860;28;20925;-70
2023/05/24 00:37:43;;;;;;;10.55;6.03;;;;;;;17.72;63.73;100640.38;2114712;28;20036;-70
2023/05/24 00:38:44;;;;;;;11.02;6.03;;;;;;;17.73;63.76;100649.34;2114208;28;20886;-71
2023/05/24 00:39:46;;;;;;;15.07;5.88;;;;;;;17.77;63.75;100653.81;2106134;28;20054;-71
2023/05/24 00:40:48;;;;;;;10.73;5.75;;;;;;;17.76;63.56;100651.41;2081546;28;20037;-70
2023/05/24 00:41:55;;;;;;;11.23;6.28;;;;;;;17.76;63.57;100654.13;2098895;28;20036;-70
2023/05/24 00:42:57;;;;;;;7.88;5.32;;;;;;;17.76;63.71;100649.47;2098839;28;20951;-70
2023/05/24 00:43:58;;;;;;;8.88;5.68;;;;;;;17.74;63.44;100640.84;2089491;28;20064;-70
2023/05/24 00:44:59;;;;;;;7.10;5.20;;;;;;;17.72;63.19;100653.19;2089949;28;20289;-70
2023/05/24 00:46:17;;;;;;;10.05;5.20;;;;;;;17.62;62.82;100640.72;2106115;28;20028;-70
2023/05/24 00:47:18;;;;;;;10.27;5.43;;;;;;;17.56;63.01;100644.75;2114889;28;20034;-71
2023/05/24 00:48:22;;;;;;;9.85;5.18;;;;;;;17.55;63.26;100646.66;2105969;28;20044;-70
2023/05/24 00:49:25;;;;;;;9.25;5.68;;;;;;;17.51;63.49;100650.34;2098983;28;20115;-70
2023/05/24 00:50:26;;;;;;;9.63;5.50;;;;;;;17.48;63.47;100645.56;2106134;28;20044;-71
2023/05/24 00:51:30;;;;;;;9.80;5.70;;;;;;;17.49;63.60;100647.16;2097789;28;20145;-71
2023/05/24 00:52:33;;;;;;;10.45;5.63;;;;;;;17.49;63.65;100649.84;2098505;27;20047;-70
2023/05/24 00:53:38;;;;;;;11.13;5.80;;;;;;;17.50;63.76;100638.69;2114770;28;20028;-69
2023/05/24 00:54:40;;;;;;;11.85;5.63;;;;;;;17.51;63.89;100639.47;2098310;28;20021;-70
2023/05/24 00:55:42;;;;;;;10.93;6.07;;;;;;;17.50;64.06;100637.88;2098452;28;20080;-70
2023/05/24 00:56:46;;;;;;;11.48;7.22;;;;;;;17.47;64.29;100633.09;2114631;28;20036;-69
2023/05/24 00:57:51;;;;;;;9.75;5.63;;;;;;;17.50;64.26;100635.97;2106293;28;20029;-71
2023/05/24 00:58:55;;;;;;;8.30;5.60;;;;;;;17.47;63.69;100635.81;2097750;28;20060;-69
2023/05/24 00:59:57;;;;;;;9.82;5.18;;;;;;;17.37;63.57;100635.03;2098281;28;20875;-69
2023/05/24 01:00:59;;;;;;;8.73;4.82;;;;;;;17.29;63.77;100643.97;2090948;28;20025;-69
2023/05/24 01:02:01;;;;;;;12.13;5.43;;;;;;;17.26;63.96;100641.91;2099853;28;20037;-69
2023/05/24 01:03:02;;;;;;;9.43;5.60;;;;;;;17.29;64.11;100635.81;2090914;28;20068;-69
2023/05/24 01:04:04;;;;;;;10.00;5.72;;;;;;;17.32;64.19;100632.47;2099856;28;20051;-70
2023/05/24 01:05:12;;;;;;;7.50;5.28;;;;;;;17.38;64.48;100635.81;2107530;28;20036;-69
2023/05/24 01:06:14;;;;;;;9.65;5.47;;;;;;;17.40;64.52;100638.19;2108820;28;20036;-69
2023/05/24 01:07:41;;;;;;;8.00;5.38;;;;;;;17.36;64.16;100633.41;2116008;28;20090;-69
2023/05/24 01:08:55;;;;;;;9.57;5.65;;;;;;;17.34;63.96;100624.78;2117964;27;21131;-70
2023/05/24 01:10:24;;;;;;;8.27;5.50;;;;;;;17.31;63.55;100632.78;2124440;27;20037;-70
2023/05/24 01:11:48;;;;;;;7.70;5.53;;;;;;;17.25;63.46;100632.16;2098856;28;20033;-69
2023/05/24 01:12:57;;;;;;;10.68;6.03;;;;;;;17.25;63.71;100645.75;2105605;28;20030;-70
2023/05/24 01:14:13;;;;;;;10.52;5.95;;;;;;;17.33;63.47;100635.97;2108860;28;20028;-70
2023/05/24 01:15:18;;;;;;;13.20;5.88;;;;;;;17.38;62.83;100631.19;2118484;27;20025;-69
2023/05/24 01:16:31;;;;;;;10.73;5.80;;;;;;;17.40;62.80;100635.47;2107554;28;20049;-70
2023/05/24 01:17:41;;;;;;;10.40;5.82;;;;;;;17.46;62.82;100631.47;2100827;28;20036;-70
2023/05/24 01:19:11;;;;;;;8.95;5.75;;;;;;;17.47;62.29;100627.66;2100030;28;20048;-70
2023/05/24 01:20:16;;;;;;;9.98;5.72;;;;;;;17.42;61.97;100633.25;2098834;28;20958;-70
2023/05/24 01:21:51;;;;;;;11.40;5.80;;;;;;;17.40;61.89;100630.03;2100338;28;20028;-70
2023/05/24 01:23:17;;;;;;;9.60;6.03;;;;;;;17.38;62.15;100630.38;2104055;28;20102;-70
2023/05/24 01:24:54;;;;;;;10.05;6.13;;;;;;;17.40;62.09;100632.75;2090801;28;20936;-70
2023/05/24 01:26:08;;;;;;;14.02;5.97;;;;;;;17.42;62.14;100641.41;2105945;28;20028;-70
2023/05/24 01:27:13;;;;;;;11.55;5.60;;;;;;;17.45;62.51;100641.56;2109362;28;20845;-70
2023/05/24 01:28:16;;;;;;;15.40;6.00;;;;;;;17.49;62.41;100639.00;2090918;28;20022;-70
2023/05/24 01:29:19;;;;;;;11.23;6.30;;;;;;;17.49;62.54;100647.16;2092030;28;20155;-70
2023/05/24 01:30:21;;;;;;;8.57;5.95;;;;;;;17.47;62.62;100638.53;2107584;28;20783;-70
2023/05/24 01:31:23;;;;;;;10.23;5.88;;;;;;;17.47;62.70;100633.09;2107644;28;20032;-71
2023/05/24 01:32:24;;;;;;;7.40;5.68;;;;;;;17.45;62.41;100638.03;2091011;28;20183;-69
2023/05/24 01:33:27;;;;;;;12.05;6.15;;;;;;;17.43;62.40;100630.19;2107701;28;20966;-69
2023/05/24 01:34:34;;;;;;;10.05;6.72;;;;;;;17.44;62.38;100639.16;2107400;28;20102;-69
2023/05/24 01:35:39;;;;;;;9.85;5.93;;;;;;;17.44;62.58;100639.97;2083690;28;20116;-69
2023/05/24 01:36:41;;;;;;;12.40;5.70;;;;;;;17.47;62.58;100633.09;2100057;28;20946;-70
2023/05/24 01:37:43;;;;;;;9.00;6.22;;;;;;;17.46;62.33;100636.91;2107750;28;20122;-70
2023/05/24 01:38:46;;;;;;;13.63;6.28;;;;;;;17.42;62.17;100635.97;2090443;28;20048;-70
2023/05/24 01:39:48;;;;;;;14.27;6.07;;;;;;;17.33;61.98;100633.25;2083005;28;20030;-69
2023/05/24 01:41:00;;;;;;;12.15;6.50;;;;;;;17.25;62.58;100637.59;2083321;28;20100;-69
2023/05/24 01:42:17;;;;;;;11.57;6.50;;;;;;;17.19;62.92;100632.66;2101923;28;20155;-69
2023/05/24 01:43:51;;;;;;;10.73;6.03;;;;;;;17.15;63.15;100635.22;2101258;28;20163;-69
2023/05/24 01:45:03;;;;;;;15.02;5.75;;;;;;;17.19;62.85;100638.88;2097482;28;20852;-69
2023/05/24 01:46:17;;;;;;;12.15;6.43;;;;;;;17.24;62.79;100630.53;2107480;28;20028;-69
2023/05/24 01:47:26;;;;;;;10.25;5.60;;;;;;;17.29;62.83;100630.38;2092162;28;20147;-69
2023/05/24 01:48:49;;;;;;;15.13;6.68;;;;;;;17.30;62.92;100645.56;2094564;28;20018;-68
2023/05/24 01:50:15;;;;;;;12.35;6.75;;;;;;;17.26;63.59;100638.38;2102262;28;20031;-70
2023/05/24 01:51:18;;;;;;;9.23;5.95;;;;;;;17.16;63.85;100634.09;2110695;28;20028;-70
2023/05/24 01:52:22;;;;;;;12.38;6.18;;;;;;;17.12;64.06;100630.41;2098885;28;20041;-70
2023/05/24 01:53:31;;;;;;;11.63;6.53;;;;;;;17.07;64.33;100627.84;2092292;28;20033;-70
2023/05/24 01:54:36;;;;;;;9.25;6.40;;;;;;;17.02;64.69;100634.22;2099793;28;20032;-70
2023/05/24 01:55:38;;;;;;;13.02;6.40;;;;;;;17.02;64.75;100633.44;2091657;28;20029;-70
2023/05/24 01:56:43;;;;;;;9.75;6.30;;;;;;;17.00;64.96;100624.81;2099327;28;20083;-70
2023/05/24 01:57:48;;;;;;;11.30;6.18;;;;;;;17.01;64.75;100632.63;2107719;28;20029;-70
2023/05/24 01:58:51;;;;;;;11.85;6.55;;;;;;;17.02;64.74;100628.00;2107229;28;20127;-70
2023/05/24 01:59:56;;;;;;;11.70;6.55;;;;;;;16.97;65.22;100628.19;2099207;28;20839;-70
2023/05/24 02:00:59;;;;;;;8.05;6.05;;;;;;;16.94;65.27;100632.34;2100310;28;20107;-69
2023/05/24 02:02:01;;;;;;;10.20;6.43;;;;;;;16.93;65.44;100628.03;2090906;28;20097;-70
2023/05/24 02:03:04;;;;;;;13.80;6.82;;;;;;;16.89;65.23;100627.84;2090970;28;20026;-70
2023/05/24 02:04:05;;;;;;;11.60;6.45;;;;;;;16.89;65.20;100637.91;2107249;28;20087;-70
2023/05/24 02:05:06;;;;;;;8.45;6.22;;;;;;;16.88;65.56;100634.41;2107345;28;20035;-70
2023/05/24 02:06:09;;;;;;;10.98;6.93;;;;;;;16.85;65.73;100640.47;2099301;28;20045;-70
2023/05/24 02:07:14;;;;;;;8.57;6.80;;;;;;;16.86;65.85;100633.91;2107817;28;20043;-70
2023/05/24 02:08:16;;;;;;;9.27;6.63;;;;;;;16.85;65.99;100640.47;2106097;28;20871;-69
2023/05/24 02:09:20;;;;;;;12.18;7.00;;;;;;;16.85;65.93;100635.03;2100313;28;20035;-69
2023/05/24 02:10:24;;;;;;;11.68;6.85;;;;;;;16.83;66.36;100639.97;2099495;28;20107;-69
2023/05/24 02:11:26;;;;;;;10.63;6.90;;;;;;;16.82;66.66;100640.31;2098687;28;20033;-69
2023/05/24 02:12:29;;;;;;;11.65;7.03;;;;;;;16.78;66.73;100634.72;2103564;28;20110;-69
2023/05/24 02:13:32;;;;;;;11.20;6.32;;;;;;;16.81;66.94;100644.94;2099627;28;20878;-69
2023/05/24 02:14:36;;;;;;;11.40;6.80;;;;;;;16.83;67.08;100641.91;2107604;27;20063;-69
2023/05/24 02:15:41;;;;;;;10.95;6.85;;;;;;;16.85;67.24;100648.63;2107428;28;20908;-69
2023/05/24 02:16:46;;;;;;;14.48;6.80;;;;;;;16.86;67.48;100649.41;2100848;28;20035;-69
2023/05/24 02:17:48;;;;;;;12.65;6.88;;;;;;;16.88;68.03;100645.25;2099401;28;20041;-69
2023/05/24 02:18:50;;;;;;;9.85;6.63;;;;;;;16.87;67.98;100653.75;2098809;28;20891;-69
2023/05/24 02:19:55;;;;;;;10.55;6.90;;;;;;;16.87;68.00;100646.38;2108246;27;20041;-70
2023/05/24 02:20:56;;;;;;;11.13;6.80;;;;;;;16.83;68.24;100648.13;2107065;28;20842;-69
2023/05/24 02:22:02;;;;;;;8.38;6.55;;;;;;;16.80;67.99;100648.78;2107796;27;20040;-67
2023/05/24 02:23:04;;;;;;;11.10;6.80;;;;;;;16.78;68.05;100648.28;2099329;28;20059;-69
2023/05/24 02:24:06;;;;;;;10.32;6.63;;;;;;;16.78;68.28;100647.50;2107782;27;20885;-69
2023/05/24 02:25:11;;;;;;;12.25;6.82;;;;;;;16.78;68.17;100645.56;2126781;27;20026;-69
2023/05/24 02:26:16;;;;;;;17.75;6.60;;;;;;;16.81;68.46;100655.00;2132574;27;20035;-69
2023/05/24 02:27:17;;;;;;;11.43;6.85;;;;;;;16.84;68.52;100649.75;2116148;27;20040;-69
2023/05/24 02:28:19;;;;;;;10.95;6.72;;;;;;;16.89;68.70;100651.47;2107283;27;20032;-68
2023/05/24 02:29:23;;;;;;;13.70;6.75;;;;;;;16.90;68.84;100648.47;2124348;27;20043;-68
2023/05/24 02:30:24;;;;;;;9.98;6.40;;;;;;;16.91;68.63;100647.34;2124207;27;20024;-68
2023/05/24 02:31:27;;;;;;;9.25;6.45;;;;;;;16.89;68.54;100651.47;2107406;27;20036;-68
2023/05/24 02:32:30;;;;;;;11.02;6.72;;;;;;;16.95;68.43;100652.94;2107673;27;20020;-68
2023/05/24 02:33:32;;;;;;;11.15;6.35;;;;;;;17.00;68.21;100668.28;2124377;27;20035;-68
2023/05/24 02:34:34;;;;;;;10.02;6.43;;;;;;;17.04;68.16;100652.94;2115390;28;20183;-68
2023/05/24 02:35:36;;;;;;;11.23;6.18;;;;;;;17.08;67.84;100654.69;2099201;27;20040;-68
2023/05/24 02:36:38;;;;;;;12.32;6.82;;;;;;;17.11;67.92;100653.25;2115728;27;20024;-68
2023/05/24 02:37:39;;;;;;;10.82;7.13;;;;;;;17.10;68.13;100657.09;2132539;27;20019;-69
2023/05/24 02:38:41;;;;;;;10.77;6.75;;;;;;;17.08;68.24;100651.97;2132321;27;20222;-69
2023/05/24 02:39:45;;;;;;;9.77;6.60;;;;;;;17.03;68.59;100659.50;2109343;27;20025;-70
2023/05/24 02:40:47;;;;;;;11.52;6.82;;;;;;;16.98;68.52;100656.94;2108346;27;20131;-70
2023/05/24 02:41:48;;;;;;;12.75;6.53;;;;;;;16.92;68.59;100659.78;2114307;27;20045;-70
2023/05/24 02:42:50;;;;;;;12.82;6.65;;;;;;;16.90;68.89;100653.91;2113905;27;20036;-70
2023/05/24 02:43:54;;;;;;;10.30;6.10;;;;;;;16.88;68.87;100661.56;2098802;28;20844;-70
2023/05/24 02:44:56;;;;;;;11.65;6.72;;;;;;;16.84;69.31;100652.47;2104495;28;20136;-71
2023/05/24 02:45:58;;;;;;;8.80;5.95;;;;;;;16.85;69.19;100656.75;2114410;27;20847;-71
2023/05/24 02:47:00;;;;;;;9.30;6.65;;;;;;;16.88;69.35;100661.56;2114354;27;20078;-71
2023/05/24 02:48:04;;;;;;;11.32;6.38;;;;;;;16.91;69.01;100649.25;2105973;28;20161;-71
2023/05/24 02:49:09;;;;;;;14.13;6.68;;;;;;;16.97;68.86;100652.63;2103059;28;20141;-71
2023/05/24 02:50:10;;;;;;;8.45;6.32;;;;;;;16.97;69.03;100652.63;2090264;28;20028;-71
2023/05/24 02:51:12;;;;;;;12.18;7.65;;;;;;;16.92;68.74;100645.41;2112423;28;20024;-72
2023/05/24 02:52:14;;;;;;;13.23;6.85;;;;;;;16.84;68.85;100649.75;2105444;28;20040;-71
2023/05/24 02:53:16;;;;;;;9.30;6.88;;;;;;;16.81;68.96;100655.81;2097372;28;20918;-71
2023/05/24 02:54:18;;;;;;;8.88;6.18;;;;;;;16.75;69.32;100650.81;2097469;28;20040;-70
2023/05/24 02:55:21;;;;;;;11.85;7.07;;;;;;;16.72;69.47;100652.25;2104046;28;20038;-70
2023/05/24 02:56:25;;;;;;;13.80;6.85;;;;;;;16.69;69.75;100653.69;2091824;28;20038;-70
2023/05/24 02:57:29;;;;;;;11.77;6.72;;;;;;;16.68;69.76;100662.16;2106358;28;20041;-69
2023/05/24 02:58:30;;;;;;;11.68;6.75;;;;;;;16.63;70.01;100646.00;2105446;28;20142;-71
2023/05/24 02:59:32;;;;;;;15.40;6.90;;;;;;;16.64;70.21;100645.66;2104308;27;20029;-70
2023/05/24 03:00:35;;;;;;;10.98;6.97;;;;;;;16.65;70.15;100651.94;2122282;27;20156;-70
2023/05/24 03:01:39;;;;;;;10.13;6.97;;;;;;;16.65;70.26;100657.34;2105873;28;20028;-69
2023/05/24 03:02:41;;;;;;;10.73;6.90;;;;;;;16.68;70.22;100654.81;2097355;28;20152;-70
2023/05/24 03:03:44;;;;;;;11.48;6.80;;;;;;;16.70;70.32;100654.47;2114161;27;20039;-69
2023/05/24 03:04:46;;;;;;;10.73;6.97;;;;;;;16.68;70.21;100659.44;2114214;27;20138;-69
2023/05/24 03:05:48;;;;;;;9.63;6.68;;;;;;;16.70;70.19;100654.47;2114266;27;20086;-70
2023/05/24 03:06:50;;;;;;;10.43;6.40;;;;;;;16.73;70.11;100659.25;2105694;28;20032;-69
2023/05/24 03:07:52;;;;;;;11.98;6.68;;;;;;;16.77;69.85;100654.03;2104092;28;20119;-69
2023/05/24 03:08:55;;;;;;;10.98;6.60;;;;;;;16.80;69.59;100654.22;2089108;28;20144;-69
2023/05/24 03:09:59;;;;;;;15.77;7.13;;;;;;;16.84;69.27;100647.03;2098281;28;20080;-69
2023/05/24 03:11:02;;;;;;;9.95;6.38;;;;;;;16.87;69.23;100654.53;2103943;28;20832;-69
2023/05/24 03:12:05;;;;;;;9.52;6.93;;;;;;;16.90;69.23;100662.03;2104716;28;20116;-69
2023/05/24 03:13:09;;;;;;;14.13;6.72;;;;;;;16.89;69.26;100654.19;2109945;28;20025;-70
2023/05/24 03:14:16;;;;;;;14.43;6.82;;;;;;;16.85;69.36;100653.25;2103188;28;20109;-70
2023/05/24 03:15:17;;;;;;;9.18;6.70;;;;;;;16.82;69.48;100657.41;2091219;28;21334;-68
2023/05/24 03:16:20;;;;;;;13.25;6.38;;;;;;;16.81;69.65;100661.25;2113407;27;20059;-70
2023/05/24 03:17:23;;;;;;;8.63;6.60;;;;;;;16.84;69.50;100654.38;2100327;28;20115;-70
2023/05/24 03:18:25;;;;;;;11.63;6.72;;;;;;;16.85;69.54;100662.19;2081581;28;20030;-70
2023/05/24 03:19:30;;;;;;;10.30;6.55;;;;;;;16.81;69.34;100658.53;2089479;28;20037;-69
2023/05/24 03:20:38;;;;;;;10.63;7.03;;;;;;;16.80;69.27;100658.81;2103835;27;20028;-70
2023/05/24 03:21:44;;;;;;;11.32;6.90;;;;;;;16.76;69.27;100661.38;2114038;27;20165;-69
2023/05/24 03:22:47;;;;;;;9.52;6.57;;;;;;;16.71;69.36;100655.25;2096309;28;20982;-70
2023/05/24 03:23:48;;;;;;;11.07;6.72;;;;;;;16.68;69.32;100667.59;2092875;28;20035;-69
2023/05/24 03:24:52;;;;;;;11.38;7.00;;;;;;;16.66;69.75;100665.16;2097116;28;20935;-69
2023/05/24 03:25:54;;;;;;;11.30;6.85;;;;;;;16.71;69.94;100666.94;2101163;28;20028;-69
2023/05/24 03:26:57;;;;;;;10.43;6.50;;;;;;;16.73;69.56;100670.13;2091750;28;20132;-69
2023/05/24 03:28:01;;;;;;;9.07;6.32;;;;;;;16.73;69.50;100667.41;2101779;28;20845;-69
2023/05/24 03:29:03;;;;;;;9.55;6.38;;;;;;;16.76;69.56;100679.59;2103254;28;20048;-69
2023/05/24 03:30:11;;;;;;;11.65;6.68;;;;;;;16.72;69.69;100665.81;2097655;28;20201;-69
2023/05/24 03:31:28;;;;;;;12.15;6.93;;;;;;;16.73;69.72;100669.34;2093420;28;20033;-69
2023/05/24 03:32:30;;;;;;;12.07;6.70;;;;;;;16.72;69.70;100673.97;2099884;28;20122;-68
2023/05/24 03:33:35;;;;;;;13.88;6.85;;;;;;;16.75;69.69;100672.53;2105655;28;21577;-69
2023/05/24 03:34:38;;;;;;;10.13;6.75;;;;;;;16.77;69.56;100678.47;2110294;28;20145;-68
2023/05/24 03:35:40;;;;;;;9.35;6.40;;;;;;;16.75;69.51;100680.69;2105459;28;20046;-68
2023/05/24 03:36:42;;;;;;;14.80;7.38;;;;;;;16.76;69.57;100682.31;2098826;28;20068;-69
2023/05/24 03:37:46;;;;;;;12.55;6.80;;;;;;;16.79;69.20;100690.63;2113837;27;20054;-68
2023/05/24 03:38:48;;;;;;;10.85;7.38;;;;;;;16.82;69.34;100684.53;2099862;28;20175;-69
2023/05/24 03:39:50;;;;;;;11.27;7.50;;;;;;;16.83;68.83;100686.13;2104515;27;20032;-68
2023/05/24 03:41:19;;;;;;;;;;;;;;;16.78;69.13;100672.72;2110826;27;20119;-68
2023/05/24 03:42:21;;;;;;;12.35;6.57;;;;;;;16.74;69.34;100684.50;2112618;28;20034;-70
2023/05/24 03:43:23;;;;;;;10.38;6.82;;;;;;;16.70;69.38;100687.03;2105782;27;20041;-70
2023/05/24 03:44:30;;;;;;;10.18;6.82;;;;;;;16.68;69.65;100684.66;2122364;27;20023;-69
2023/05/24 03:45:34;;;;;;;14.25;6.55;;;;;;;16.68;69.68;100683.88;2120583;27;20031;-69
2023/05/24 03:46:36;;;;;;;9.98;6.50;;;;;;;16.71;69.43;100687.84;2121955;27;21370;-69
2023/05/24 03:47:40;;;;;;;13.93;6.88;;;;;;;16.75;69.50;100683.41;2110088;28;21331;-69
2023/05/24 03:48:41;;;;;;;10.57;6.50;;;;;;;16.75;69.25;100684.22;2097634;28;20031;-69
2023/05/24 03:49:43;;;;;;;10.52;6.40;;;;;;;16.77;69.45;100692.88;2104485;28;20029;-68
2023/05/24 03:50:45;;;;;;;10.40;6.80;;;;;;;16.76;69.46;100688.53;2098877;28;20052;-68
2023/05/24 03:51:47;;;;;;;10.38;6.90;;;;;;;16.74;69.32;100690.75;2100910;28;20028;-68
2023/05/24 03:52:53;;;;;;;13.30;6.57;;;;;;;16.73;69.43;100680.19;2097869;28;20025;-68
2023/05/24 03:53:56;;;;;;;10.00;6.53;;;;;;;16.72;69.45;100690.25;2105285;27;20152;-68
2023/05/24 03:54:58;;;;;;;9.07;5.82;;;;;;;16.76;69.11;100683.09;2113803;27;20028;-68
2023/05/24 03:55:59;;;;;;;10.60;6.72;;;;;;;16.79;69.05;100681.66;2113382;28;20134;-68
2023/05/24 03:57:01;;;;;;;13.07;6.32;;;;;;;16.83;68.73;100691.56;2098446;28;20037;-69
2023/05/24 03:58:03;;;;;;;10.15;6.28;;;;;;;16.84;68.48;100682.31;2097335;28;20029;-69
2023/05/24 03:59:05;;;;;;;9.43;6.40;;;;;;;16.82;68.64;100689.19;2099822;28;20028;-69
2023/05/24 04:00:11;;;;;;;10.15;6.30;;;;;;;16.77;68.54;100690.16;2092276;28;20029;-68
2023/05/24 04:01:16;;;;;;;11.02;6.32;;;;;;;16.73;68.75;100694.56;2090538;28;20026;-69
2023/05/24 04:02:19;;;;;;;13.52;7.57;;;;;;;16.70;68.83;100692.47;2099859;28;20033;-68
2023/05/24 04:03:21;;;;;;;10.05;6.65;;;;;;;16.68;68.83;100683.88;2096361;28;20170;-69
2023/05/24 04:04:22;;;;;;;8.50;6.20;;;;;;;16.69;68.76;100690.88;2103249;27;20155;-68
2023/05/24 04:05:28;;;;;;;8.88;6.22;;;;;;;16.69;68.98;100693.59;2121789;27;20491;-69
2023/05/24 04:06:30;;;;;;;9.02;6.32;;;;;;;16.69;68.70;100685.47;2122006;27;20031;-69
2023/05/24 04:07:35;;;;;;;8.93;5.97;;;;;;;16.69;68.46;100701.75;2113587;27;20028;-68
2023/05/24 04:08:39;;;;;;;9.57;6.22;;;;;;;16.72;68.22;100689.47;2098223;28;20029;-69
2023/05/24 04:09:42;;;;;;;15.38;6.10;;;;;;;16.73;68.28;100691.84;2106029;27;20024;-69
2023/05/24 04:10:45;;;;;;;10.02;6.28;;;;;;;16.76;68.30;100693.97;2113789;28;20036;-69
2023/05/24 04:11:47;;;;;;;8.07;5.95;;;;;;;16.78;67.82;100693.66;2097221;28;20911;-70
2023/05/24 04:12:50;;;;;;;8.73;5.90;;;;;;;16.81;67.82;100699.25;2105237;28;20040;-70
2023/05/24 04:13:52;;;;;;;10.60;5.60;;;;;;;16.83;67.59;100697.00;2105323;28;20910;-70
2023/05/24 04:14:53;;;;;;;9.85;6.28;;;;;;;16.86;67.58;100693.66;2105183;28;20029;-70
2023/05/24 04:15:59;;;;;;;8.40;5.57;;;;;;;16.86;67.69;100696.38;2103594;28;21379;-70
2023/05/24 04:17:03;;;;;;;9.07;6.10;;;;;;;16.90;67.55;100696.56;2105471;28;20045;-68
2023/05/24 04:18:05;;;;;;;12.25;5.80;;;;;;;16.96;67.22;100699.91;2108926;28;20036;-68
2023/05/24 04:19:09;;;;;;;8.63;5.68;;;;;;;16.94;67.23;100689.38;2097496;28;20087;-69
2023/05/24 04:20:12;;;;;;;7.75;6.10;;;;;;;16.93;67.19;100695.94;2105043;28;20737;-68
2023/05/24 04:21:14;;;;;;;12.57;6.07;;;;;;;16.90;67.27;100693.84;2105456;28;20037;-68
2023/05/24 04:22:17;;;;;;;7.57;5.85;;;;;;;16.89;67.35;100694.94;2096767;28;20025;-68
2023/05/24 04:23:18;;;;;;;12.23;6.30;;;;;;;16.90;67.24;100691.91;2112115;27;20036;-68
2023/05/24 04:24:20;;;;;;;13.35;6.13;;;;;;;16.91;67.16;100693.50;2105231;28;20024;-69
2023/05/24 04:25:22;;;;;;;8.07;5.97;;;;;;;16.97;67.20;100701.50;2098941;28;20040;-68
2023/05/24 04:26:24;;;;;;;8.93;6.10;;;;;;;17.01;67.32;100705.97;2101407;28;20863;-67
2023/05/24 04:27:26;;;;;;;12.40;5.95;;;;;;;17.05;67.28;100700.72;2113252;28;20084;-67
2023/05/24 04:28:28;;;;;;;9.93;5.55;;;;;;;17.07;67.21;100703.91;2112914;28;20142;-67
2023/05/24 04:29:32;;;;;;;7.75;6.05;;;;;;;17.01;67.41;100688.88;2113148;27;20150;-67
2023/05/24 04:30:36;;;;;;;11.40;5.80;;;;;;;17.06;67.60;100710.47;2105219;28;20047;-68
2023/05/24 04:31:38;;;;;;;12.95;6.18;;;;;;;17.05;67.51;100698.00;2102193;27;20040;-68
2023/05/24 04:32:39;;;;;;;10.35;6.10;;;;;;;17.03;67.44;100702.97;2098686;28;20021;-70
2023/05/24 04:33:46;;;;;;;8.40;5.93;;;;;;;17.03;67.41;100700.25;2105231;28;20992;-67
2023/05/24 04:34:51;;;;;;;12.40;6.13;;;;;;;17.01;67.24;100697.84;2112460;27;20862;-70
2023/05/24 04:35:53;;;;;;;9.57;6.00;;;;;;;16.99;67.16;100705.53;2104800;28;20059;-69
2023/05/24 04:36:55;;;;;;;10.23;6.03;;;;;;;16.96;67.39;100702.63;2099985;28;20890;-69
2023/05/24 04:37:59;;;;;;;8.10;6.25;;;;;;;16.98;67.17;100705.81;2087395;28;20060;-68
2023/05/24 04:39:03;;;;;;;8.30;5.80;;;;;;;17.01;66.89;100707.91;2096039;28;20134;-68
2023/05/24 04:40:09;;;;;;;14.68;6.53;;;;;;;16.99;67.04;100710.13;2100211;28;20029;-67
2023/05/24 04:41:11;;;;;;;11.48;6.47;;;;;;;17.01;66.95;100703.25;2113050;27;20055;-67
2023/05/24 04:42:12;;;;;;;8.68;5.80;;;;;;;17.03;66.47;100705.69;2113524;27;20084;-67
2023/05/24 04:43:17;;;;;;;10.27;5.82;;;;;;;17.02;66.37;100709.50;2113097;28;20036;-67
2023/05/24 04:44:19;;;;;;;8.75;6.05;;;;;;;17.04;66.04;100716.22;2104744;28;20944;-67
2023/05/24 04:45:26;;;;;;;9.38;5.68;;;;;;;17.07;65.84;100712.06;2104299;28;20045;-68
2023/05/24 04:46:28;;;;;;;11.40;5.90;;;;;;;17.07;65.73;100707.44;2098707;27;20033;-69
2023/05/24 04:47:30;;;;;;;8.35;6.15;;;;;;;17.07;65.23;100717.50;2107104;28;20912;-69
2023/05/24 04:48:34;;;;;;;10.23;5.80;;;;;;;17.07;65.17;100709.34;2113481;27;20052;-68
2023/05/24 04:49:37;;;;;;;14.23;6.28;;;;;;;17.08;65.38;100713.66;2113171;27;20041;-68
2023/05/24 04:50:39;;;;;;;12.73;6.10;;;;;;;17.06;65.21;100718.63;2113538;27;20109;-68
2023/05/24 04:51:42;;;;;;;9.50;6.10;;;;;;;17.07;65.28;100722.94;2104833;28;20031;-68
2023/05/24 04:52:43;;;;;;;9.77;6.20;;;;;;;17.03;65.23;100728.19;2093196;28;20029;-67
2023/05/24 04:53:45;;;;;;;11.65;5.95;;;;;;;17.03;65.09;100724.69;2104914;28;20904;-67
2023/05/24 04:54:48;;;;;;;11.75;6.32;;;;;;;17.01;65.27;100726.91;2112874;28;20039;-68
2023/05/24 04:55:49;;;;;;;9.15;5.82;;;;;;;16.99;65.29;100727.25;2099674;28;20029;-67
2023/05/24 04:56:51;;;;;;;12.40;5.75;;;;;;;17.00;65.54;100733.47;2105235;27;20032;-70
2023/05/24 04:57:53;;;;;;;10.65;5.97;;;;;;;16.99;65.27;100738.13;2106474;27;20048;-68